Time;durP1;ratioP1;P1;durP2;ratioP2;P2;SDS_P1;SDS_P2;PMS_P1;PMS_P2;Temp;Humidity;BMP_temperature;BMP_pressure;BME280_temperature;BME280_humidity;BME280_pressure;Samples;Min_cycle;Max_cycle;Signal;HPM_P1;HPM_P2
2022/11/07 00:02:07;;;;;;;11.68;6.05;;;;;;;11.31;68.38;98943.56;5090856;28;20058;-46
2022/11/07 00:04:33;;;;;;;9.05;5.43;;;;;;;11.52;68.00;98945.22;5090765;28;20451;-46
2022/11/07 00:06:59;;;;;;;7.90;4.72;;;;;;;11.66;66.99;98941.59;5090829;28;20020;-46
2022/11/07 00:09:25;;;;;;;9.55;5.30;;;;;;;11.73;66.42;98942.41;5090777;28;20469;-46
2022/11/07 00:11:51;;;;;;;8.23;5.07;;;;;;;11.72;65.86;98946.03;5090758;28;20071;-46
2022/11/07 00:14:17;;;;;;;9.20;5.85;;;;;;;11.78;66.58;98954.94;5090750;28;20123;-46
2022/11/07 00:16:44;;;;;;;10.05;4.72;;;;;;;11.67;65.76;98953.75;5073892;28;20024;-46
2022/11/07 00:19:13;;;;;;;6.32;4.00;;;;;;;11.47;65.58;98958.97;5092005;28;20026;-46
2022/11/07 00:21:39;;;;;;;9.38;4.00;;;;;;;11.37;66.54;98961.97;5091602;28;20044;-46
2022/11/07 00:24:07;;;;;;;13.02;5.47;;;;;;;11.55;67.10;98965.81;5091863;28;20036;-46
2022/11/07 00:26:32;;;;;;;17.13;5.45;;;;;;;11.74;66.88;98965.06;5091911;28;20115;-46
2022/11/07 00:28:58;;;;;;;9.48;4.60;;;;;;;11.94;66.23;98957.22;5090506;28;20111;-46
2022/11/07 00:31:24;;;;;;;13.35;4.88;;;;;;;11.93;65.53;98963.50;5091802;28;20538;-45
2022/11/07 00:33:51;;;;;;;8.95;4.30;;;;;;;11.78;65.02;98963.63;5090477;28;20032;-46
2022/11/07 00:36:19;;;;;;;11.60;4.30;;;;;;;11.66;65.71;98964.44;5091800;28;20020;-46
2022/11/07 00:38:45;;;;;;;13.15;5.60;;;;;;;11.59;65.51;98965.25;5091747;28;20070;-45
2022/11/07 00:41:11;;;;;;;9.18;4.88;;;;;;;11.38;66.05;98960.13;5091673;28;20020;-46
2022/11/07 00:43:36;;;;;;;6.22;3.40;;;;;;;11.19;65.89;98962.53;5090459;28;20066;-46
2022/11/07 00:46:04;;;;;;;10.80;4.15;;;;;;;10.84;67.12;98958.34;5092881;28;20510;-45
2022/11/07 00:48:31;;;;;;;6.80;4.30;;;;;;;10.57;68.28;98966.06;5095798;28;20099;-46
2022/11/07 00:51:03;;;;;;;9.40;3.95;;;;;;;10.52;69.06;98971.91;5094430;28;20082;-45
2022/11/07 00:53:29;;;;;;;10.02;4.38;;;;;;;10.63;68.73;98970.56;5094423;28;20028;-45
2022/11/07 00:56:00;;;;;;;6.57;4.72;;;;;;;10.59;68.76;98967.50;5095865;28;20024;-46
2022/11/07 00:58:26;;;;;;;8.10;4.43;;;;;;;10.46;69.02;98970.03;5094366;28;20398;-45
2022/11/07 01:00:51;;;;;;;7.85;4.40;;;;;;;10.29;69.57;98972.13;5095586;28;20058;-45
2022/11/07 01:06:02;;;;;;;10.90;4.38;;;;;;;9.97;70.66;98978.72;5095499;28;20034;-45
2022/11/07 01:08:29;;;;;;;6.63;4.57;;;;;;;9.91;70.85;98982.13;5095418;28;20028;-46
2022/11/07 01:10:55;;;;;;;11.40;5.13;;;;;;;9.87;70.89;98979.06;5094051;28;20553;-45
2022/11/07 01:13:22;;;;;;;8.70;5.28;;;;;;;9.83;71.19;98985.66;5094000;28;20106;-45
2022/11/07 01:15:48;;;;;;;8.55;5.22;;;;;;;9.66;71.80;98985.13;5095275;28;20524;-46
2022/11/07 01:18:14;;;;;;;8.80;5.43;;;;;;;9.51;72.19;98987.78;5095238;28;20028;-45
2022/11/07 01:20:40;;;;;;;8.05;5.22;;;;;;;9.51;72.64;98990.41;5094930;28;20048;-45
2022/11/07 01:23:05;;;;;;;10.77;5.10;;;;;;;9.60;72.84;98991.09;5095070;28;20063;-45
2022/11/07 01:25:31;;;;;;;8.60;6.25;;;;;;;9.65;72.36;98985.31;5093706;28;20028;-45
2022/11/07 01:27:57;;;;;;;8.65;5.80;;;;;;;9.60;72.84;98997.16;5095107;28;20031;-45
2022/11/07 01:30:23;;;;;;;9.15;5.63;;;;;;;9.50;72.95;98995.84;5094946;28;20028;-45
2022/11/07 01:32:49;;;;;;;10.57;5.55;;;;;;;9.44;73.42;98988.69;5094967;28;20031;-46
2022/11/07 01:35:15;;;;;;;8.15;4.15;;;;;;;9.42;73.42;98990.69;5094953;28;20421;-46
2022/11/07 01:37:40;;;;;;;7.57;3.97;;;;;;;9.66;73.53;98998.22;5094892;28;20442;-45
2022/11/07 01:40:07;;;;;;;11.40;4.85;;;;;;;9.89;72.74;98992.78;5094773;28;20379;-45
2022/11/07 01:42:32;;;;;;;13.70;9.57;;;;;;;9.96;71.80;98988.41;5093515;28;20020;-45
2022/11/07 01:44:59;;;;;;;9.77;5.25;;;;;;;9.91;71.73;98989.97;5094674;28;20031;-46
2022/11/07 01:47:32;;;;;;;7.47;4.10;;;;;;;9.90;71.60;98985.72;5094646;28;20027;-45
2022/11/07 01:49:59;;;;;;;12.82;3.65;;;;;;;9.89;71.89;98989.34;5093369;28;20039;-46
2022/11/07 01:52:35;;;;;;;7.30;3.88;;;;;;;9.96;71.97;98987.59;5094574;28;20024;-45
2022/11/07 01:55:20;;;;;;;7.00;3.88;;;;;;;10.06;71.15;98989.88;5093260;28;20059;-45
2022/11/07 01:57:54;;;;;;;8.90;3.70;;;;;;;9.89;70.91;98984.91;5092514;28;20405;-45
2022/11/07 02:00:23;;;;;;;5.03;3.50;;;;;;;9.65;71.40;98986.09;5093158;28;20028;-45
2022/11/07 02:02:54;;;;;;;10.05;4.03;;;;;;;9.44;72.10;98983.47;5093013;28;20024;-45
2022/11/07 02:05:29;;;;;;;5.47;3.63;;;;;;;9.30;72.49;98980.72;5093004;28;20035;-45
2022/11/07 02:07:55;;;;;;;5.72;3.80;;;;;;;9.18;73.06;98980.38;5093107;28;20028;-45
2022/11/07 02:10:22;;;;;;;8.77;3.97;;;;;;;9.17;73.45;98977.94;5094202;28;20020;-45
2022/11/07 02:12:48;;;;;;;5.35;3.28;;;;;;;9.18;73.52;98971.72;5092872;28;20024;-45
2022/11/07 02:15:14;;;;;;;10.45;6.25;;;;;;;9.11;73.90;98973.44;5092823;28;20032;-45
2022/11/07 02:17:40;;;;;;;7.20;4.25;;;;;;;9.25;73.91;98971.78;5092792;28;20394;-45
2022/11/07 02:20:06;;;;;;;10.38;4.40;;;;;;;9.26;73.60;98970.81;5094006;28;20020;-46
2022/11/07 02:22:53;;;;;;;10.38;5.03;;;;;;;9.16;73.89;98976.31;5093831;28;20040;-45
2022/11/07 02:25:19;;;;;;;12.32;5.05;;;;;;;9.03;74.32;98979.56;5093986;28;20024;-45
2022/11/07 02:27:47;;;;;;;6.28;3.75;;;;;;;8.94;74.77;98973.63;5092597;28;20046;-45
2022/11/07 02:30:17;;;;;;;8.27;4.32;;;;;;;8.89;75.26;98967.31;5093812;28;20073;-45
2022/11/07 02:32:43;;;;;;;9.07;4.30;;;;;;;8.90;75.19;98972.38;5092465;28;20525;-45
2022/11/07 02:35:35;;;;;;;8.82;4.20;;;;;;;8.91;75.37;98957.47;5092472;28;20060;-45
2022/11/07 02:38:31;;;;;;;8.80;4.30;;;;;;;9.04;75.51;98962.09;5093686;28;20066;-45
2022/11/07 02:40:58;;;;;;;11.18;4.15;;;;;;;9.08;75.01;98968.56;5093835;28;20024;-45
2022/11/07 02:43:28;;;;;;;12.27;4.00;;;;;;;9.33;75.09;98964.63;5092189;28;20073;-46
2022/11/07 02:45:56;;;;;;;4.60;3.20;;;;;;;9.60;73.87;98970.94;5093819;28;20030;-45
2022/11/07 02:48:28;;;;;;;9.00;3.85;;;;;;;9.74;73.40;98966.66;5093505;28;20026;-46
2022/11/07 02:50:53;;;;;;;6.57;3.60;;;;;;;9.88;72.81;98975.44;5092465;28;20067;-45
2022/11/07 02:53:19;;;;;;;5.15;3.20;;;;;;;9.90;71.89;98975.22;5093402;28;20063;-46
2022/11/07 02:55:45;;;;;;;8.70;3.53;;;;;;;9.78;71.51;98981.00;5093361;28;20017;-46
2022/11/07 02:58:10;;;;;;;11.25;4.28;;;;;;;9.65;72.21;98970.38;5093299;28;20020;-45
2022/11/07 03:00:36;;;;;;;8.30;4.03;;;;;;;9.71;72.33;98968.81;5093526;28;20028;-46
2022/11/07 03:03:02;;;;;;;9.95;4.03;;;;;;;9.75;72.00;98973.50;5074978;28;20028;-45
2022/11/07 03:05:27;;;;;;;8.32;3.40;;;;;;;9.78;71.72;98974.94;5091817;28;20020;-46
2022/11/07 03:07:53;;;;;;;6.78;3.30;;;;;;;9.77;70.99;98968.88;5093107;28;20031;-46
2022/11/07 03:10:19;;;;;;;7.85;3.65;;;;;;;9.67;71.28;98973.63;5092083;28;20063;-46
2022/11/07 03:12:44;;;;;;;10.02;3.45;;;;;;;9.65;71.32;98966.97;5093073;28;20028;-46
2022/11/07 03:15:12;;;;;;;11.13;4.30;;;;;;;9.64;71.68;98962.69;5092830;28;20024;-46
2022/11/07 03:17:37;;;;;;;8.30;4.32;;;;;;;9.60;71.61;98959.66;5091650;28;20027;-45
2022/11/07 03:20:04;;;;;;;6.25;4.07;;;;;;;9.39;71.51;98958.63;5092896;28;20024;-45
2022/11/07 03:22:29;;;;;;;8.82;3.92;;;;;;;9.26;71.94;98963.75;5091351;28;20052;-45
2022/11/07 03:24:55;;;;;;;6.40;3.58;;;;;;;9.12;72.55;98954.13;5091471;28;20025;-45
2022/11/07 03:27:21;;;;;;;9.30;3.45;;;;;;;8.91;73.49;98955.66;5092794;28;20070;-46
2022/11/07 03:29:47;;;;;;;7.57;3.50;;;;;;;8.84;74.79;98959.22;5092721;28;20031;-45
2022/11/07 03:32:12;;;;;;;6.95;2.95;;;;;;;8.78;75.17;98950.28;5092914;28;20030;-45
2022/11/07 03:34:38;;;;;;;8.20;3.78;;;;;;;8.71;74.96;98947.59;5092674;28;20375;-45
2022/11/07 03:37:03;;;;;;;5.95;2.90;;;;;;;8.63;76.11;98950.28;5091210;28;20107;-45
2022/11/07 03:39:29;;;;;;;6.95;3.85;;;;;;;8.52;75.92;98959.41;5091298;28;20020;-45
2022/11/07 03:41:55;;;;;;;9.55;3.67;;;;;;;8.40;76.49;98956.38;5092419;28;20024;-45
2022/11/07 03:44:21;;;;;;;8.73;3.85;;;;;;;8.37;76.94;98959.38;5092393;28;20055;-46
2022/11/07 03:46:46;;;;;;;7.13;3.53;;;;;;;8.43;76.95;98968.34;5092462;28;20069;-45
2022/11/07 03:49:12;;;;;;;8.82;3.47;;;;;;;8.34;77.30;98969.38;5092399;28;20089;-45
2022/11/07 03:51:38;;;;;;;8.90;3.50;;;;;;;8.42;77.44;98966.69;5092389;28;20028;-45
2022/11/07 03:54:04;;;;;;;7.93;3.92;;;;;;;8.48;76.63;98963.38;5090995;28;20038;-45
2022/11/07 03:56:29;;;;;;;6.45;3.28;;;;;;;8.33;76.97;98965.94;5092249;28;20516;-45
2022/11/07 03:58:55;;;;;;;6.03;3.42;;;;;;;8.32;77.22;98971.34;5092519;28;20394;-45
2022/11/07 04:01:21;;;;;;;11.98;5.20;;;;;;;8.52;77.79;98977.72;5090848;28;20084;-45
2022/11/07 04:03:46;;;;;;;17.70;8.52;;;;;;;8.72;76.34;98969.34;5092091;28;20160;-45
2022/11/07 04:06:12;;;;;;;3.72;2.60;;;;;;;8.75;75.27;98967.19;5092161;28;20183;-46
2022/11/07 04:08:38;;;;;;;28.40;7.85;;;;;;;8.67;75.03;98966.44;5092062;28;20102;-45
2022/11/07 04:11:03;;;;;;;10.48;2.88;;;;;;;8.62;74.97;98971.41;5092036;28;20046;-45
2022/11/07 04:18:58;;;;;;;17.40;4.05;;;;;;;8.88;74.93;98979.59;5092267;28;20047;-45
2022/11/07 04:21:23;;;;;;;16.63;3.90;;;;;;;8.74;75.13;98981.22;5091223;28;20056;-45
2022/11/07 04:23:49;;;;;;;19.63;3.05;;;;;;;8.58;75.10;98987.44;5091902;28;20032;-45
2022/11/07 04:28:59;;;;;;;13.25;3.42;;;;;;;8.44;75.32;98990.88;5092139;28;20051;-46
2022/11/07 04:31:24;;;;;;;12.13;3.10;;;;;;;8.51;75.56;98988.34;5091888;28;20485;-45
2022/11/07 04:33:50;;;;;;;7.63;3.45;;;;;;;8.51;75.31;98980.50;5090524;28;20558;-45
2022/11/07 04:36:16;;;;;;;6.38;3.22;;;;;;;8.52;75.07;98992.59;5091790;28;20039;-46
2022/11/07 04:38:42;;;;;;;7.47;3.20;;;;;;;8.38;75.04;98999.41;5090805;28;20028;-45
2022/11/07 04:41:18;;;;;;;7.15;4.80;;;;;;;8.43;75.83;98996.28;5091698;28;20504;-45
2022/11/07 04:43:44;;;;;;;9.52;3.60;;;;;;;8.53;75.31;98991.59;5091620;28;20028;-45
2022/11/07 04:46:09;;;;;;;8.95;4.07;;;;;;;8.46;74.93;98990.69;5091679;28;20038;-45
2022/11/07 04:48:35;;;;;;;7.05;3.25;;;;;;;8.49;74.58;98988.56;5091701;28;20026;-45
2022/11/07 04:51:01;;;;;;;6.07;2.90;;;;;;;8.57;74.66;98988.47;5090359;28;20853;-45
2022/11/07 04:53:26;;;;;;;3.63;2.40;;;;;;;8.65;74.36;98994.59;5090391;28;20379;-45
2022/11/07 04:55:52;;;;;;;4.78;2.70;;;;;;;8.59;73.68;98998.72;5091657;28;20475;-45
2022/11/07 04:58:18;;;;;;;12.25;4.05;;;;;;;8.45;74.21;98992.50;5090324;28;20387;-45
2022/11/07 05:00:43;;;;;;;8.60;4.53;;;;;;;8.33;74.80;98986.88;5091495;28;20028;-45
2022/11/07 05:03:09;;;;;;;4.72;3.53;;;;;;;8.33;75.15;98983.41;5091577;28;20471;-45
2022/11/07 05:05:35;;;;;;;9.93;3.97;;;;;;;8.24;75.57;98990.53;5091636;28;20424;-45
2022/11/07 05:08:00;;;;;;;12.40;3.88;;;;;;;8.12;76.16;98995.38;5090234;28;20084;-45
2022/11/07 05:10:28;;;;;;;13.77;4.00;;;;;;;8.01;76.21;98982.75;5091524;28;20054;-46
2022/11/07 05:12:55;;;;;;;9.18;3.13;;;;;;;7.98;77.02;98985.69;5091499;28;20383;-45
2022/11/07 05:15:21;;;;;;;7.28;2.95;;;;;;;8.19;76.91;98993.69;5091402;28;20020;-46
2022/11/07 05:17:47;;;;;;;4.95;2.65;;;;;;;8.30;76.28;98997.69;5090141;28;20032;-45
2022/11/07 05:20:34;;;;;;;7.32;3.00;;;;;;;8.57;76.03;98998.94;5091430;28;20020;-45
2022/11/07 05:23:17;;;;;;;8.60;3.15;;;;;;;8.68;74.97;98987.19;5091148;28;20379;-45
2022/11/07 05:25:48;;;;;;;7.13;2.83;;;;;;;8.53;74.60;98992.44;5091362;28;20034;-45
2022/11/07 05:28:19;;;;;;;5.80;3.40;;;;;;;8.27;74.57;98989.38;5091600;28;20447;-46
2022/11/07 05:30:45;;;;;;;7.72;3.40;;;;;;;8.06;75.27;98988.25;5091362;28;20032;-45
2022/11/07 05:33:13;;;;;;;13.98;3.38;;;;;;;7.94;76.20;98993.06;5091231;28;20032;-45
2022/11/07 05:35:39;;;;;;;6.75;3.03;;;;;;;7.81;76.49;98998.09;5094900;28;20541;-45
2022/11/07 05:38:04;;;;;;;8.63;3.47;;;;;;;7.70;76.85;99003.72;5093601;28;20028;-45
2022/11/07 05:40:33;;;;;;;13.10;3.13;;;;;;;7.79;77.18;98998.25;5094811;28;20024;-45
2022/11/07 05:43:00;;;;;;;18.90;3.72;;;;;;;8.05;77.42;99004.94;5094730;28;20104;-45
2022/11/07 05:45:27;;;;;;;18.67;3.83;;;;;;;8.30;76.66;99000.28;5093451;28;20165;-45
2022/11/07 05:47:57;;;;;;;12.25;3.22;;;;;;;8.54;76.13;98999.28;5094734;28;20059;-46
2022/11/07 05:50:23;;;;;;;11.25;3.33;;;;;;;8.64;75.49;99003.44;5094627;28;20034;-45
2022/11/07 05:52:49;;;;;;;11.95;3.20;;;;;;;8.70;74.93;99000.91;5094643;28;20016;-45
2022/11/07 05:55:14;;;;;;;7.00;2.63;;;;;;;8.78;74.64;98995.59;5093193;28;20058;-46
2022/11/07 05:57:40;;;;;;;9.90;3.05;;;;;;;8.76;74.10;98997.56;5093305;28;20172;-45
2022/11/07 06:00:06;;;;;;;5.32;2.53;;;;;;;8.77;74.33;99004.44;5094472;28;20425;-46
2022/11/07 06:02:32;;;;;;;6.28;4.43;;;;;;;8.93;74.15;99007.84;5094461;28;20102;-45
2022/11/07 06:04:58;;;;;;;10.40;6.28;;;;;;;9.11;73.11;99008.28;5094330;28;20051;-45
2022/11/07 06:07:23;;;;;;;16.40;4.95;;;;;;;9.19;72.94;99005.59;5094318;28;20024;-45
2022/11/07 06:09:49;;;;;;;11.88;3.60;;;;;;;9.25;71.44;99011.06;5094307;28;20032;-45
2022/11/07 06:12:15;;;;;;;9.98;3.60;;;;;;;9.17;71.64;99019.81;5092916;28;20038;-45
2022/11/07 06:14:40;;;;;;;12.13;4.07;;;;;;;9.08;71.70;99016.50;5094106;28;20028;-45
2022/11/07 06:17:06;;;;;;;13.00;4.43;;;;;;;8.97;71.57;99023.03;5094177;28;20055;-45
2022/11/07 06:19:32;;;;;;;7.18;2.88;;;;;;;8.89;71.77;99019.66;5094121;28;20498;-45
2022/11/07 06:22:01;;;;;;;7.90;3.50;;;;;;;8.88;72.28;99011.00;5092398;28;20116;-45
2022/11/07 06:24:27;;;;;;;12.00;4.00;;;;;;;8.86;72.05;99010.38;5092589;28;20047;-45
2022/11/07 06:26:52;;;;;;;12.57;4.18;;;;;;;8.77;71.83;99006.22;5092627;28;20490;-46
2022/11/07 06:29:18;;;;;;;11.40;5.65;;;;;;;8.58;71.79;99012.81;5093940;28;20026;-45
2022/11/07 06:31:44;;;;;;;10.35;3.30;;;;;;;8.30;72.40;99004.72;5093852;28;20070;-45
2022/11/07 06:34:09;;;;;;;9.80;4.05;;;;;;;8.07;73.28;99005.56;5092521;28;20114;-45
2022/11/07 06:36:35;;;;;;;6.10;3.28;;;;;;;7.88;74.01;99008.66;5093739;28;20020;-45
2022/11/07 06:39:01;;;;;;;14.55;4.22;;;;;;;7.78;74.92;99014.09;5093738;28;20094;-45
2022/11/07 06:41:26;;;;;;;14.32;4.28;;;;;;;8.11;75.90;99006.84;5093637;28;20103;-45
2022/11/07 06:43:52;;;;;;;8.82;3.60;;;;;;;8.83;74.59;99013.34;5092002;28;20402;-45
2022/11/07 06:46:18;;;;;;;12.27;4.22;;;;;;;9.54;72.72;99013.63;5092248;28;20026;-45
2022/11/07 06:48:45;;;;;;;10.63;3.85;;;;;;;10.01;70.41;99006.19;5093469;28;20462;-46
2022/11/07 06:51:11;;;;;;;11.80;3.90;;;;;;;9.78;68.79;99003.78;5093444;28;20091;-46
2022/11/07 06:53:37;;;;;;;6.72;2.92;;;;;;;9.30;68.97;99008.72;5093462;28;20185;-46
2022/11/07 06:56:06;;;;;;;7.13;3.80;;;;;;;8.88;70.63;99012.81;5092059;28;20487;-45
2022/11/07 06:58:32;;;;;;;8.93;4.45;;;;;;;8.76;72.21;99025.53;5093382;28;20059;-45
2022/11/07 07:01:05;;;;;;;9.68;4.68;;;;;;;9.38;72.75;99030.38;5093260;28;20069;-45
2022/11/07 07:03:31;;;;;;;13.32;4.60;;;;;;;10.56;71.13;99019.56;5093271;28;20027;-46
2022/11/07 07:06:04;;;;;;;16.25;3.83;;;;;;;11.65;68.92;99020.66;5091997;28;20020;-45
2022/11/07 07:08:33;;;;;;;17.00;5.22;;;;;;;12.54;64.72;99022.16;5093490;28;20028;-46
2022/11/07 07:11:05;;;;;;;9.02;3.55;;;;;;;12.42;62.62;99029.88;5093114;28;20085;-46
2022/11/07 07:13:31;;;;;;;8.10;4.20;;;;;;;11.79;63.11;99027.56;5091782;28;20032;-46
2022/11/07 07:15:57;;;;;;;11.05;4.10;;;;;;;11.83;65.15;99030.59;5093002;28;20110;-46
2022/11/07 07:18:25;;;;;;;21.25;5.50;;;;;;;12.83;62.91;99031.41;5092031;28;20401;-46
2022/11/07 07:20:51;;;;;;;19.50;4.50;;;;;;;13.84;59.97;99035.25;5092617;28;20027;-46
2022/11/07 07:23:18;;;;;;;22.90;5.07;;;;;;;14.67;57.44;99033.41;5091569;28;20054;-46
2022/11/07 07:25:45;;;;;;;23.02;5.03;;;;;;;15.50;55.76;99029.44;5092818;28;20489;-46
2022/11/07 07:28:11;;;;;;;17.77;3.95;;;;;;;16.32;53.86;99029.69;5091447;28;20016;-46
2022/11/07 07:30:37;;;;;;;18.25;4.53;;;;;;;16.97;52.02;99030.59;5092730;28;20073;-46
2022/11/07 07:33:02;;;;;;;9.88;3.65;;;;;;;17.47;49.88;99023.91;5091364;28;20146;-46
2022/11/07 07:35:28;;;;;;;12.93;4.35;;;;;;;17.88;48.11;99036.06;5091306;28;20031;-46
2022/11/07 07:37:54;;;;;;;21.30;4.78;;;;;;;18.27;47.28;99038.84;5092637;28;20020;-44
2022/11/07 07:40:20;;;;;;;19.58;4.68;;;;;;;18.63;46.37;99041.22;5092597;28;20022;-44
2022/11/07 07:42:45;;;;;;;17.67;4.68;;;;;;;18.84;45.26;99040.50;5092443;28;20035;-44
2022/11/07 07:45:13;;;;;;;19.83;5.50;;;;;;;19.04;44.94;99044.47;5074263;28;20038;-44
2022/11/07 07:47:39;;;;;;;21.10;4.95;;;;;;;19.16;44.35;99027.34;5092477;28;20125;-44
2022/11/07 07:50:06;;;;;;;1082.55;96.85;;;;;;;19.18;43.58;99027.09;5091027;28;20031;-43
2022/11/07 07:52:32;;;;;;;186.48;17.33;;;;;;;19.11;43.62;99029.13;5091028;28;20016;-44
2022/11/07 07:54:58;;;;;;;185.63;18.05;;;;;;;18.97;43.64;99020.72;5090849;28;20039;-44
2022/11/07 07:57:24;;;;;;;86.28;10.25;;;;;;;18.85;43.49;99020.81;5090735;28;20394;-44
2022/11/07 07:59:49;;;;;;;391.42;34.10;;;;;;;18.94;43.87;99030.00;5092192;28;20073;-44
2022/11/07 08:02:15;;;;;;;395.90;34.63;;;;;;;19.09;43.50;99023.25;5091224;28;20540;-44
2022/11/07 08:04:41;;;;;;;41.13;6.35;;;;;;;19.27;42.67;99024.78;5092077;28;20435;-44
2022/11/07 08:07:07;;;;;;;39.58;6.88;;;;;;;19.38;42.24;99029.19;5090812;28;20024;-44
2022/11/07 08:09:35;;;;;;;13.43;4.53;;;;;;;19.62;41.84;99029.72;5092110;28;20054;-44
2022/11/07 08:12:03;;;;;;;13.13;4.85;;;;;;;19.97;41.34;99035.66;5090727;28;20016;-44
2022/11/07 08:14:29;;;;;;;20.30;5.47;;;;;;;20.32;40.91;99030.63;5092020;28;20058;-44
2022/11/07 08:16:55;;;;;;;30.85;7.10;;;;;;;20.71;40.05;99030.34;5090625;28;20020;-44
2022/11/07 08:19:20;;;;;;;28.10;5.75;;;;;;;20.85;39.20;99030.69;5092233;28;20444;-44
2022/11/07 08:21:46;;;;;;;27.02;5.82;;;;;;;21.09;39.76;99024.94;5091660;28;20040;-44
2022/11/07 08:24:12;;;;;;;11.48;4.20;;;;;;;21.73;39.15;99024.59;5091856;28;20023;-44
2022/11/07 08:26:38;;;;;;;19.17;4.20;;;;;;;22.44;37.28;99027.59;5091826;28;20046;-44
2022/11/07 08:29:04;;;;;;;15.85;3.90;;;;;;;22.92;36.58;99028.78;5091827;28;20098;-44
2022/11/07 08:31:29;;;;;;;9.65;3.83;;;;;;;23.10;35.67;99026.59;5091830;28;20027;-44
2022/11/07 08:33:59;;;;;;;14.45;4.38;;;;;;;23.30;35.92;99029.22;5091816;28;20128;-44
2022/11/07 08:36:26;;;;;;;10.18;3.35;;;;;;;23.42;35.30;99026.19;5091814;28;20103;-44
2022/11/07 08:38:52;;;;;;;12.52;4.00;;;;;;;23.46;35.21;99015.72;5090469;28;20016;-44
2022/11/07 08:41:19;;;;;;;19.20;4.63;;;;;;;23.73;35.09;99018.75;5091716;28;20032;-45
2022/11/07 08:43:45;;;;;;;14.52;3.95;;;;;;;23.78;34.75;99017.16;5091595;28;20016;-44
2022/11/07 08:46:10;;;;;;;11.07;3.67;;;;;;;24.10;34.12;99014.75;5091950;28;20024;-44
2022/11/07 08:48:36;;;;;;;20.55;4.63;;;;;;;24.34;33.67;99022.03;5090380;28;20494;-44
2022/11/07 08:51:02;;;;;;;9.50;3.63;;;;;;;24.62;33.25;99014.28;5091691;28;20742;-44
2022/11/07 08:53:29;;;;;;;15.02;4.35;;;;;;;24.80;33.12;99012.75;5091674;28;20024;-44
2022/11/07 08:56:06;;;;;;;8.02;4.15;;;;;;;25.11;33.24;99016.69;5091591;28;20024;-45
2022/11/07 08:58:33;;;;;;;12.32;4.22;;;;;;;25.69;32.04;99020.22;5090294;28;20024;-44
2022/11/07 09:00:59;;;;;;;18.98;3.40;;;;;;;25.85;31.48;99010.03;5091574;28;20513;-45
2022/11/07 09:03:24;;;;;;;13.75;4.55;;;;;;;25.80;31.50;99012.81;5090202;28;20021;-44
2022/11/07 09:05:51;;;;;;;16.63;4.25;;;;;;;25.73;31.56;99015.84;5090234;28;20028;-44
2022/11/07 09:08:17;;;;;;;8.05;3.72;;;;;;;25.67;31.45;99015.13;5093343;28;20028;-44
2022/11/07 09:10:43;;;;;;;12.25;4.13;;;;;;;26.03;31.82;99011.09;5094123;28;20486;-45
2022/11/07 09:13:09;;;;;;;16.15;3.70;;;;;;;26.39;30.75;98999.72;5095378;28;20016;-45
2022/11/07 09:15:35;;;;;;;14.65;4.55;;;;;;;26.85;30.13;99006.97;5095358;28;20482;-45
2022/11/07 09:18:03;;;;;;;16.20;4.50;;;;;;;26.68;30.13;98999.47;5095278;28;20024;-45
2022/11/07 09:20:29;;;;;;;9.98;4.18;;;;;;;27.01;30.02;99002.84;5095185;28;20028;-45
2022/11/07 09:22:56;;;;;;;9.65;3.40;;;;;;;27.57;28.99;99000.03;5095019;28;20044;-45
2022/11/07 09:25:22;;;;;;;8.98;3.85;;;;;;;27.46;28.65;99007.56;5094977;28;20370;-45
2022/11/07 09:27:50;;;;;;;10.00;3.28;;;;;;;27.42;28.52;98999.28;5095354;28;20031;-45
2022/11/07 09:30:17;;;;;;;16.52;4.40;;;;;;;27.20;29.00;99004.63;5077187;28;20070;-45
2022/11/07 09:32:43;;;;;;;10.95;3.50;;;;;;;27.18;29.38;99001.44;5095251;28;20447;-45
2022/11/07 09:35:09;;;;;;;8.63;3.58;;;;;;;27.41;28.72;98999.63;5093657;28;20146;-45
2022/11/07 09:37:39;;;;;;;10.77;4.00;;;;;;;27.57;29.53;99000.84;5094969;28;20020;-45
2022/11/07 09:40:15;;;;;;;12.27;3.47;;;;;;;27.65;28.97;98992.03;5094909;28;20095;-45
2022/11/07 09:42:46;;;;;;;4.93;3.00;;;;;;;27.45;29.37;98997.91;5093543;28;20513;-45
2022/11/07 09:45:12;;;;;;;12.32;3.92;;;;;;;27.80;28.67;98998.16;5093769;28;20050;-45
2022/11/07 09:47:50;;;;;;;47.33;5.65;;;;;;;28.03;28.44;98991.69;5094743;28;20027;-45
2022/11/07 09:50:30;;;;;;;13.77;4.55;;;;;;;28.27;28.32;98991.34;5093400;28;20020;-45
2022/11/07 09:53:33;;;;;;;61.30;7.55;;;;;;;28.69;28.24;98993.75;5093462;28;20146;-45
2022/11/07 09:56:05;;;;;;;22.58;4.80;;;;;;;28.93;27.48;98992.56;5094639;28;20020;-45
2022/11/07 09:58:41;;;;;;;26.63;6.40;;;;;;;28.98;27.95;98987.81;5093372;28;20056;-45
2022/11/07 10:01:15;;;;;;;13.65;3.63;;;;;;;29.12;27.53;98986.88;5094557;28;20611;-45
2022/11/07 10:03:42;;;;;;;10.57;3.83;;;;;;;29.38;26.96;98984.19;5094434;28;20036;-45
2022/11/07 10:06:26;;;;;;;8.55;4.00;;;;;;;29.47;27.31;98980.38;5094348;28;20190;-45
2022/11/07 10:09:21;;;;;;;8.18;3.30;;;;;;;29.91;26.69;98974.97;5094379;28;20498;-45
2022/11/07 10:11:51;;;;;;;14.13;4.68;;;;;;;30.20;26.31;98981.56;5092964;28;20487;-45
2022/11/07 10:14:26;;;;;;;6.72;2.97;;;;;;;29.60;26.65;98980.53;5094596;28;20077;-45
2022/11/07 10:17:08;;;;;;;11.18;3.30;;;;;;;29.51;26.68;98969.72;5094125;28;20048;-45
2022/11/07 10:19:55;;;;;;;12.77;3.60;;;;;;;29.87;26.56;98977.50;5093639;28;20028;-45
2022/11/07 10:22:34;;;;;;;9.93;3.50;;;;;;;30.24;26.53;98971.69;5093812;28;20084;-45
2022/11/07 10:25:32;;;;;;;18.40;3.95;;;;;;;30.43;25.74;98968.63;5092686;28;20028;-45
2022/11/07 10:28:06;;;;;;;9.80;3.88;;;;;;;30.07;26.06;98965.22;5093976;28;20039;-45
2022/11/07 10:30:33;;;;;;;24.55;4.82;;;;;;;29.52;26.68;98963.22;5092572;28;20027;-45
2022/11/07 10:33:23;;;;;;;15.82;3.45;;;;;;;28.76;27.61;98963.59;5092566;28;20114;-45
2022/11/07 10:35:57;;;;;;;7.75;3.35;;;;;;;28.16;28.69;98967.63;5093792;28;20028;-45
2022/11/07 10:38:23;;;;;;;9.55;3.22;;;;;;;28.13;28.98;98966.34;5093814;28;20115;-45
2022/11/07 10:40:50;;;;;;;14.40;3.15;;;;;;;28.19;28.97;98961.59;5093955;28;20107;-45
2022/11/07 10:43:33;;;;;;;22.50;4.88;;;;;;;28.16;29.18;98959.53;5093593;28;20035;-45
2022/11/07 10:46:02;;;;;;;12.10;3.75;;;;;;;28.00;29.05;98965.31;5093612;28;20024;-45
2022/11/07 10:48:28;;;;;;;15.52;3.35;;;;;;;28.31;29.36;98974.50;5093523;28;20022;-45
2022/11/07 10:50:55;;;;;;;20.95;3.40;;;;;;;28.61;28.76;98956.72;5092142;28;20512;-45
2022/11/07 10:53:23;;;;;;;14.43;3.35;;;;;;;28.32;29.33;98946.44;5092217;28;20028;-45
2022/11/07 10:55:51;;;;;;;17.98;3.33;;;;;;;28.35;28.85;98951.97;5093362;28;20027;-45
2022/11/07 10:58:25;;;;;;;13.93;3.00;;;;;;;28.59;28.83;98950.81;5093349;28;20390;-45
2022/11/07 11:00:59;;;;;;;10.35;3.05;;;;;;;28.99;28.22;98945.34;5093376;28;20024;-45
2022/11/07 11:03:29;;;;;;;7.32;3.38;;;;;;;29.13;28.07;98947.94;5093205;28;20020;-45
2022/11/07 11:05:55;;;;;;;5.10;2.35;;;;;;;29.34;27.87;98946.22;5093157;28;20016;-45
2022/11/07 11:08:26;;;;;;;12.98;2.72;;;;;;;29.26;27.71;98942.38;5093151;28;20028;-45
2022/11/07 11:10:52;;;;;;;13.90;2.67;;;;;;;29.24;28.19;98944.63;5093051;28;20085;-45
2022/11/07 11:13:28;;;;;;;8.40;2.85;;;;;;;29.48;27.44;98943.34;5093109;28;20032;-45
2022/11/07 11:16:00;;;;;;;5.97;2.63;;;;;;;29.57;27.31;98927.09;5091648;28;20020;-45
2022/11/07 11:18:26;;;;;;;9.75;3.00;;;;;;;29.89;26.84;98927.69;5093484;28;20036;-45
2022/11/07 11:20:56;;;;;;;4.35;2.20;;;;;;;30.06;26.82;98920.31;5091294;28;20441;-46
2022/11/07 11:23:24;;;;;;;13.32;3.55;;;;;;;30.32;26.87;98914.00;5091541;28;20032;-45
2022/11/07 11:25:57;;;;;;;7.47;2.28;;;;;;;30.73;25.87;98912.53;5091497;28;20035;-45
2022/11/07 11:28:33;;;;;;;5.55;2.40;;;;;;;31.04;25.52;98906.75;5092787;28;20071;-45
2022/11/07 11:31:06;;;;;;;9.48;2.30;;;;;;;31.11;25.44;98906.22;5090632;28;20031;-45
2022/11/07 11:33:41;;;;;;;6.53;2.35;;;;;;;31.11;25.07;98906.22;5075138;28;20023;-45
2022/11/07 11:36:17;;;;;;;8.68;2.35;;;;;;;31.16;24.81;98902.50;5092736;28;20065;-45
2022/11/07 11:38:51;;;;;;;4.65;2.40;;;;;;;31.01;24.88;98898.50;5092670;28;20081;-45
2022/11/07 11:41:31;;;;;;;9.57;2.33;;;;;;;31.21;24.74;98899.59;5092564;28;20051;-45
2022/11/07 11:44:13;;;;;;;4.18;2.05;;;;;;;31.41;24.53;98882.50;5092774;28;20023;-45
2022/11/07 11:46:54;;;;;;;4.88;1.73;;;;;;;31.16;24.45;98887.03;5092514;28;20077;-46
2022/11/07 11:49:43;;;;;;;5.00;2.00;;;;;;;31.05;24.37;98883.94;5092470;28;20031;-46
2022/11/07 11:52:15;;;;;;;24.52;4.35;;;;;;;30.63;25.27;98877.69;5081335;28;20101;-46